createdAt,value
2023-03-25T00:01:14.960Z,14.60
2023-03-25T00:03:42.068Z,14.60
2023-03-25T00:06:09.837Z,14.60
2023-03-25T00:08:36.925Z,14.60
2023-03-25T00:11:08.296Z,14.70
2023-03-25T00:13:35.216Z,14.60
2023-03-25T00:16:02.952Z,14.60
2023-03-25T00:18:33.795Z,14.60
2023-03-25T00:21:02.239Z,14.50
2023-03-25T00:23:29.451Z,14.50
2023-03-25T00:26:00.490Z,14.40
2023-03-25T00:28:28.709Z,14.50
2023-03-25T00:30:58.475Z,14.50
2023-03-25T00:33:25.217Z,14.50
2023-03-25T00:35:59.300Z,14.50
2023-03-25T00:38:33.388Z,14.40
2023-03-25T00:41:09.074Z,14.40
2023-03-25T00:43:35.836Z,14.40
2023-03-25T00:46:02.577Z,14.40
2023-03-25T00:48:29.840Z,14.40
2023-03-25T00:50:56.564Z,14.40
2023-03-25T00:53:23.717Z,14.40
2023-03-25T00:55:51.288Z,14.40
2023-03-25T00:58:18.164Z,14.50
2023-03-25T01:00:44.869Z,14.50
2023-03-25T01:03:12.993Z,14.50
2023-03-25T01:05:41.733Z,14.50
2023-03-25T01:08:08.535Z,14.50
2023-03-25T01:10:36.149Z,14.50
2023-03-25T01:13:02.897Z,14.50
2023-03-25T01:15:29.696Z,14.60
2023-03-25T01:17:56.615Z,14.50
2023-03-25T01:20:23.557Z,14.50
2023-03-25T01:22:50.453Z,14.50
2023-03-25T01:25:17.250Z,14.50
2023-03-25T01:27:45.950Z,14.50
2023-03-25T01:30:13.090Z,14.50
2023-03-25T01:32:39.894Z,14.50
2023-03-25T01:35:07.144Z,14.60
2023-03-25T01:37:36.743Z,14.60
2023-03-25T01:40:05.401Z,14.60
2023-03-25T01:42:32.115Z,14.60
2023-03-25T01:45:16.040Z,14.60
2023-03-25T01:47:43.761Z,14.70
2023-03-25T01:50:14.871Z,14.70
2023-03-25T01:52:44.379Z,14.70
2023-03-25T01:55:11.752Z,14.60
2023-03-25T01:57:40.688Z,14.60
2023-03-25T02:00:09.595Z,14.60
2023-03-25T02:02:40.313Z,14.50
2023-03-25T02:05:10.971Z,14.50
2023-03-25T02:07:39.696Z,14.50
2023-03-25T02:10:08.204Z,14.50
2023-03-25T02:12:35.068Z,14.50
2023-03-25T02:15:02.943Z,14.50
2023-03-25T02:17:45.653Z,14.50
2023-03-25T02:20:15.364Z,14.50
2023-03-25T02:22:49.923Z,14.50
2023-03-25T02:25:24.002Z,14.50
2023-03-25T02:28:10.266Z,14.70
2023-03-25T02:30:42.735Z,14.60
2023-03-25T02:33:18.568Z,14.60
2023-03-25T02:36:00.341Z,14.50
2023-03-25T02:38:36.868Z,14.50
2023-03-25T02:41:03.680Z,14.60
2023-03-25T02:43:51.494Z,14.50
2023-03-25T02:46:18.558Z,14.50
2023-03-25T02:49:04.120Z,14.50
2023-03-25T02:51:32.691Z,14.50
2023-03-25T02:54:02.753Z,14.40
2023-03-25T02:56:33.074Z,14.40
2023-03-25T02:59:00.645Z,14.30
2023-03-25T03:01:27.437Z,14.30
2023-03-25T03:03:55.417Z,14.30
2023-03-25T03:06:23.384Z,14.20
2023-03-25T03:08:50.386Z,14.20
2023-03-25T03:11:24.854Z,14.20
2023-03-25T03:14:01.012Z,14.20
2023-03-25T03:16:40.371Z,14.20
2023-03-25T03:19:34.432Z,14.20
2023-03-25T03:22:14.389Z,14.20
2023-03-25T03:24:52.734Z,14.20
2023-03-25T03:27:28.625Z,14.20
2023-03-25T03:30:04.530Z,14.20
2023-03-25T03:32:32.777Z,14.20
2023-03-25T03:35:01.783Z,14.10
2023-03-25T03:37:33.720Z,14.20
2023-03-25T03:40:01.933Z,14.20
2023-03-25T03:42:41.520Z,14.10
2023-03-25T03:45:10.392Z,14.10
2023-03-25T03:47:41.023Z,14.20
2023-03-25T03:50:14.380Z,14.20
2023-03-25T03:52:46.952Z,14.10
2023-03-25T03:55:16.542Z,14.10
2023-03-25T03:57:45.747Z,14.10
2023-03-25T04:00:16.185Z,14.10
2023-03-25T04:03:06.386Z,14.20
2023-03-25T04:05:35.113Z,14.10
2023-03-25T04:08:12.085Z,14.20
2023-03-25T04:10:59.272Z,14.10
2023-03-25T04:13:31.332Z,14.10
2023-03-25T04:16:00.426Z,14.10
2023-03-25T04:18:28.691Z,14.10
2023-03-25T04:20:56.100Z,14.10
2023-03-25T04:23:23.022Z,14.10
2023-03-25T04:25:53.358Z,14.10
2023-03-25T04:28:20.356Z,14.10
2023-03-25T04:30:48.778Z,14.10
2023-03-25T04:33:15.516Z,14.00
2023-03-25T04:35:42.348Z,14.00
2023-03-25T04:38:09.254Z,14.00
2023-03-25T04:40:36.027Z,14.10
2023-03-25T04:43:02.803Z,14.10
2023-03-25T04:45:30.890Z,14.00
2023-03-25T04:47:58.139Z,14.00
2023-03-25T04:50:27.211Z,14.10
2023-03-25T04:52:54.989Z,14.00
2023-03-25T04:55:22.179Z,14.00
2023-03-25T04:57:50.033Z,14.00
2023-03-25T05:00:18.652Z,14.00
2023-03-25T05:02:46.291Z,14.10
2023-03-25T05:05:20.308Z,14.00
2023-03-25T05:07:55.235Z,14.00
2023-03-25T05:10:23.581Z,14.00
2023-03-25T05:12:50.597Z,13.90
2023-03-25T05:15:17.520Z,13.90
2023-03-25T05:17:44.623Z,13.90
2023-03-25T05:20:12.135Z,13.90
2023-03-25T05:22:38.948Z,13.90
2023-03-25T05:25:09.817Z,13.90
2023-03-25T05:27:37.191Z,13.90
2023-03-25T05:30:04.560Z,13.90
2023-03-25T05:32:33.498Z,13.90
2023-03-25T05:35:00.801Z,13.80
2023-03-25T05:37:27.678Z,13.80
2023-03-25T05:39:54.727Z,13.80
2023-03-25T05:42:24.430Z,13.80
2023-03-25T05:44:51.554Z,13.90
2023-03-25T05:47:20.286Z,13.80
2023-03-25T05:49:47.113Z,13.80
2023-03-25T05:52:13.936Z,13.80
2023-03-25T05:54:42.292Z,13.90
2023-03-25T05:57:09.419Z,13.90
2023-03-25T05:59:38.862Z,13.90
2023-03-25T06:02:07.718Z,13.90
2023-03-25T06:04:37.921Z,14.00
2023-03-25T06:07:14.421Z,14.00
2023-03-25T06:09:46.206Z,14.00
2023-03-25T06:12:16.991Z,14.00
2023-03-25T06:14:45.449Z,14.00
2023-03-25T06:17:12.821Z,13.90
2023-03-25T06:19:39.667Z,14.00
2023-03-25T06:22:09.231Z,13.90
2023-03-25T06:24:37.356Z,14.00
2023-03-25T06:27:05.051Z,14.00
2023-03-25T06:29:31.842Z,14.00
2023-03-25T06:31:58.592Z,14.00
2023-03-25T06:34:25.388Z,14.00
2023-03-25T06:36:54.174Z,14.10
2023-03-25T06:39:21.369Z,14.00
2023-03-25T06:41:48.285Z,14.10
2023-03-25T06:44:15.038Z,14.10
2023-03-25T06:46:41.773Z,14.10
2023-03-25T06:49:08.558Z,14.10
2023-03-25T06:51:35.443Z,14.10
2023-03-25T06:54:02.194Z,14.20
2023-03-25T06:56:29.064Z,14.20
2023-03-25T06:58:55.883Z,14.20
2023-03-25T07:01:22.798Z,14.20
2023-03-25T07:03:49.590Z,14.20
2023-03-25T07:06:17.932Z,14.30
2023-03-25T07:08:44.716Z,14.30
2023-03-25T07:11:12.773Z,14.30
2023-03-25T07:13:39.620Z,14.30
2023-03-25T07:16:06.795Z,14.30
2023-03-25T07:18:33.604Z,14.20
2023-03-25T07:21:00.434Z,14.30
2023-03-25T07:23:27.368Z,14.30
2023-03-25T07:25:54.374Z,14.30
2023-03-25T07:28:21.475Z,14.30
2023-03-25T07:30:48.218Z,14.30
2023-03-25T07:33:15.064Z,14.30
2023-03-25T07:35:41.899Z,14.30
2023-03-25T07:38:10.019Z,14.30
2023-03-25T07:40:36.961Z,14.30
2023-03-25T07:43:03.744Z,14.40
2023-03-25T07:45:30.937Z,14.40
2023-03-25T07:48:14.781Z,14.40
2023-03-25T07:50:42.241Z,14.30
2023-03-25T07:53:08.995Z,14.40
2023-03-25T07:55:35.971Z,14.50
2023-03-25T07:58:03.002Z,14.50
2023-03-25T08:00:30.033Z,14.60
2023-03-25T08:02:56.928Z,14.60
2023-03-25T08:05:23.780Z,14.70
2023-03-25T08:07:50.972Z,14.70
2023-03-25T08:10:17.984Z,14.80
2023-03-25T08:12:44.774Z,15.00
2023-03-25T08:15:12.443Z,15.00
2023-03-25T08:17:39.634Z,15.00
2023-03-25T08:20:07.115Z,15.00
2023-03-25T08:22:34.107Z,15.00
2023-03-25T08:25:01.030Z,15.00
2023-03-25T08:27:27.757Z,15.30
2023-03-25T08:29:55.790Z,15.50
2023-03-25T08:32:22.854Z,15.80
2023-03-25T08:34:49.723Z,16.00
2023-03-25T08:37:16.550Z,16.00
2023-03-25T08:39:45.083Z,16.00
2023-03-25T08:42:12.935Z,16.10
2023-03-25T08:44:40.150Z,16.20
2023-03-25T08:47:07.029Z,16.20
2023-03-25T08:49:33.786Z,16.30
2023-03-25T08:52:01.859Z,16.30
2023-03-25T08:54:29.264Z,16.40
2023-03-25T08:56:56.253Z,16.50
2023-03-25T08:59:23.094Z,16.40
2023-03-25T09:01:49.971Z,16.50
2023-03-25T09:04:16.850Z,16.60
2023-03-25T09:06:47.959Z,16.60
2023-03-25T09:09:30.678Z,16.70
2023-03-25T09:11:57.477Z,16.80
2023-03-25T09:14:24.304Z,16.80
2023-03-25T09:16:51.245Z,16.70
2023-03-25T09:19:18.068Z,16.80
2023-03-25T09:21:44.857Z,16.90
2023-03-25T09:24:12.901Z,16.90
2023-03-25T09:26:39.864Z,17.00
2023-03-25T09:29:06.701Z,17.10
2023-03-25T09:31:33.810Z,17.10
2023-03-25T09:34:01.040Z,17.20
2023-03-25T09:36:27.816Z,17.20
2023-03-25T09:38:54.658Z,17.20
2023-03-25T09:41:30.273Z,17.20
2023-03-25T09:43:57.207Z,17.20
2023-03-25T09:46:24.172Z,17.30
2023-03-25T09:48:51.335Z,17.30
2023-03-25T09:51:32.107Z,17.40
2023-03-25T09:53:58.791Z,17.30
2023-03-25T09:56:28.772Z,17.40
2023-03-25T09:58:59.103Z,17.40
2023-03-25T10:01:33.173Z,17.40
2023-03-25T10:04:02.863Z,17.50
2023-03-25T10:06:30.752Z,17.50
2023-03-25T10:09:20.932Z,17.50
2023-03-25T10:12:12.600Z,17.50
2023-03-25T10:14:40.472Z,17.60
2023-03-25T10:17:25.958Z,17.60
2023-03-25T10:20:05.844Z,17.50
2023-03-25T10:22:36.657Z,17.40
2023-03-25T10:25:13.853Z,17.40
2023-03-25T10:27:43.157Z,17.40
2023-03-25T10:30:09.935Z,17.50
2023-03-25T10:32:41.626Z,17.50
2023-03-25T10:35:15.344Z,17.50
2023-03-25T10:37:42.382Z,17.60
2023-03-25T10:40:16.733Z,17.50
2023-03-25T10:42:54.320Z,17.60
2023-03-25T10:45:21.593Z,17.50
2023-03-25T10:47:50.004Z,17.50
2023-03-25T10:50:17.780Z,17.60
2023-03-25T10:52:45.355Z,17.60
2023-03-25T10:55:25.977Z,17.50
2023-03-25T10:57:52.946Z,17.50
2023-03-25T11:00:20.438Z,17.60
2023-03-25T11:02:47.942Z,17.50
2023-03-25T11:05:18.970Z,17.50
2023-03-25T11:07:54.113Z,17.50
2023-03-25T11:10:23.662Z,17.60
2023-03-25T11:12:51.687Z,17.60
2023-03-25T11:15:23.132Z,17.60
2023-03-25T11:18:08.130Z,17.60
2023-03-25T11:20:39.633Z,17.70
2023-03-25T11:23:13.678Z,17.70
2023-03-25T11:25:42.149Z,17.70
2023-03-25T11:28:21.494Z,17.70
2023-03-25T11:31:07.018Z,17.80
2023-03-25T11:33:33.965Z,17.80
2023-03-25T11:36:30.408Z,17.90
2023-03-25T11:38:59.337Z,17.90
2023-03-25T11:41:30.052Z,18.00
2023-03-25T11:43:57.467Z,18.10
2023-03-25T11:46:24.719Z,17.80
2023-03-25T11:48:51.898Z,17.40
2023-03-25T11:51:27.982Z,17.20
2023-03-25T11:53:57.219Z,16.90
2023-03-25T11:56:34.489Z,16.90
2023-03-25T11:59:02.130Z,16.70
2023-03-25T12:01:31.763Z,16.60
2023-03-25T12:04:08.747Z,16.60
2023-03-25T12:06:35.674Z,16.50
2023-03-25T12:09:07.215Z,16.50
2023-03-25T12:11:42.666Z,16.50
2023-03-25T12:14:09.645Z,16.50
2023-03-25T12:16:41.467Z,16.50
2023-03-25T12:19:16.393Z,16.40
2023-03-25T12:21:55.514Z,16.40
2023-03-25T12:24:22.343Z,16.40
2023-03-25T12:27:08.402Z,16.40
2023-03-25T12:29:35.168Z,16.40
2023-03-25T12:32:06.742Z,16.40
2023-03-25T12:34:49.524Z,16.40
2023-03-25T12:37:34.730Z,16.40
2023-03-25T12:40:17.741Z,16.40
2023-03-25T12:42:47.542Z,16.30
2023-03-25T12:45:14.277Z,16.40
2023-03-25T12:47:50.665Z,16.40
2023-03-25T12:50:22.705Z,16.40
2023-03-25T12:53:00.258Z,16.40
2023-03-25T12:55:33.476Z,16.30
2023-03-25T12:58:18.939Z,16.30
2023-03-25T13:00:49.145Z,16.30
2023-03-25T13:03:22.090Z,16.30
2023-03-25T13:06:07.833Z,16.30
2023-03-25T13:08:43.474Z,16.30
2023-03-25T13:11:16.242Z,16.30
2023-03-25T13:13:44.051Z,16.30
2023-03-25T13:16:17.841Z,16.30
2023-03-25T13:19:03.441Z,16.30
2023-03-25T13:21:32.253Z,16.30
2023-03-25T13:24:05.198Z,16.30
2023-03-25T13:26:32.494Z,16.30
2023-03-25T13:29:03.763Z,16.30
2023-03-25T13:31:33.472Z,16.20
2023-03-25T13:34:18.965Z,16.20
2023-03-25T13:37:06.046Z,16.20
2023-03-25T13:39:46.195Z,16.20
2023-03-25T13:42:15.792Z,16.20
2023-03-25T13:44:43.375Z,16.20
2023-03-25T13:47:12.825Z,16.20
2023-03-25T13:49:59.847Z,16.20
2023-03-25T13:52:29.998Z,16.20
2023-03-25T13:54:58.963Z,16.20
2023-03-25T13:57:45.474Z,16.20
2023-03-25T14:00:27.672Z,16.80
2023-03-25T14:03:17.838Z,17.40
2023-03-25T14:06:00.058Z,17.80
2023-03-25T14:08:35.993Z,17.90
2023-03-25T14:11:11.802Z,18.00
2023-03-25T14:13:44.034Z,18.10
2023-03-25T14:16:13.554Z,18.20
2023-03-25T14:18:44.528Z,18.20
2023-03-25T14:21:27.223Z,18.30
2023-03-25T14:24:03.025Z,18.40
2023-03-25T14:26:30.004Z,18.40
2023-03-25T14:28:58.148Z,18.50
2023-03-25T14:31:29.458Z,18.50
2023-03-25T14:34:04.962Z,18.60
2023-03-25T14:36:52.034Z,18.70
2023-03-25T14:39:24.571Z,18.60
2023-03-25T14:41:59.427Z,18.70
2023-03-25T14:44:33.009Z,18.60
2023-03-25T14:47:22.881Z,18.70
2023-03-25T14:49:50.865Z,18.60
2023-03-25T14:52:18.894Z,18.60
2023-03-25T14:54:49.881Z,18.70
2023-03-25T14:57:18.853Z,18.70
2023-03-25T14:59:46.754Z,18.70
2023-03-25T15:02:21.076Z,18.60
2023-03-25T15:04:56.336Z,18.60
2023-03-25T15:07:41.081Z,18.70
2023-03-25T15:10:08.253Z,18.80
2023-03-25T15:12:38.325Z,18.70
2023-03-25T15:15:25.176Z,18.80
2023-03-25T15:17:52.011Z,18.80
2023-03-25T15:20:21.898Z,18.90
2023-03-25T15:23:17.887Z,18.90
2023-03-25T15:25:53.040Z,18.90
2023-03-25T15:28:19.754Z,18.90
2023-03-25T15:30:52.494Z,18.90
2023-03-25T15:33:39.034Z,18.90
2023-03-25T15:36:09.387Z,19.00
2023-03-25T15:38:51.553Z,19.00
2023-03-25T15:41:21.528Z,18.90
2023-03-25T15:44:04.319Z,18.90
2023-03-25T15:46:46.474Z,19.00
2023-03-25T15:49:16.353Z,19.00
2023-03-25T15:51:49.095Z,18.90
2023-03-25T15:54:28.425Z,18.90
2023-03-25T15:56:58.620Z,18.80
2023-03-25T15:59:25.625Z,18.90
2023-03-25T16:01:52.997Z,19.00
2023-03-25T16:04:31.694Z,19.00
2023-03-25T16:06:59.878Z,18.90
2023-03-25T16:09:28.933Z,18.90
2023-03-25T16:12:02.877Z,19.00
2023-03-25T16:14:31.534Z,18.90
2023-03-25T16:17:00.102Z,18.90
2023-03-25T16:19:31.425Z,18.80
2023-03-25T16:22:01.316Z,18.70
2023-03-25T16:24:29.830Z,18.70
2023-03-25T16:26:56.675Z,18.80
2023-03-25T16:29:25.081Z,18.70
2023-03-25T16:31:53.728Z,18.70
2023-03-25T16:34:21.308Z,18.60
2023-03-25T16:36:50.192Z,18.60
2023-03-25T16:39:17.863Z,18.50
2023-03-25T16:41:51.569Z,18.50
2023-03-25T16:44:23.330Z,18.60
2023-03-25T16:46:51.781Z,18.50
2023-03-25T16:49:27.313Z,18.50
2023-03-25T16:51:55.061Z,18.50
2023-03-25T16:54:32.796Z,18.40
2023-03-25T16:57:00.515Z,18.40
2023-03-25T16:59:32.804Z,18.30
2023-03-25T17:02:00.391Z,18.20
2023-03-25T17:04:39.358Z,18.20
2023-03-25T17:07:09.717Z,18.20
2023-03-25T17:10:06.678Z,18.10
2023-03-25T17:12:34.720Z,18.10
2023-03-25T17:15:06.734Z,18.00
2023-03-25T17:17:40.440Z,17.90
2023-03-25T17:20:11.412Z,17.90
2023-03-25T17:22:57.947Z,17.70
2023-03-25T17:25:34.979Z,17.80
2023-03-25T17:28:24.934Z,17.90
2023-03-25T17:33:39.199Z,17.90
2023-03-25T17:36:30.744Z,17.90
2023-03-25T17:38:57.731Z,17.80
2023-03-25T17:41:28.128Z,17.70
2023-03-25T17:44:13.840Z,17.80
2023-03-25T17:46:40.857Z,17.60
2023-03-25T17:49:17.944Z,17.50
2023-03-25T17:51:46.464Z,17.40
2023-03-25T17:54:14.560Z,17.20
2023-03-25T17:56:42.008Z,17.10
2023-03-25T17:59:40.831Z,17.10
2023-03-25T18:02:11.096Z,17.10
2023-03-25T18:04:38.397Z,17.00
2023-03-25T18:07:05.218Z,17.00
2023-03-25T18:09:50.734Z,17.00
2023-03-25T18:12:17.500Z,17.10
2023-03-25T18:17:29.082Z,17.40
2023-03-25T18:20:14.603Z,17.50
2023-03-25T18:22:41.901Z,17.60
2023-03-25T18:27:56.553Z,17.40
2023-03-25T18:33:08.014Z,17.20
2023-03-25T18:35:34.847Z,17.00
2023-03-25T18:38:01.601Z,16.90
2023-03-25T18:40:31.930Z,16.90
2023-03-25T18:42:58.748Z,16.80
2023-03-25T18:45:25.866Z,16.80
2023-03-25T18:47:52.837Z,16.70
2023-03-25T18:50:31.472Z,16.70
2023-03-25T18:52:59.017Z,16.60
2023-03-25T18:55:46.006Z,16.60
2023-03-25T18:58:27.129Z,16.60
2023-03-25T19:00:54.873Z,16.60
2023-03-25T19:03:40.743Z,16.60
2023-03-25T19:06:12.065Z,16.60
2023-03-25T19:08:39.204Z,16.60
2023-03-25T19:11:19.184Z,16.60
2023-03-25T19:13:47.332Z,16.60
2023-03-25T19:16:14.341Z,16.60
2023-03-25T19:18:41.179Z,16.50
2023-03-25T19:21:08.331Z,16.50
2023-03-25T19:23:36.646Z,16.50
2023-03-25T19:26:03.810Z,16.50
2023-03-25T19:28:30.593Z,16.50
2023-03-25T19:30:59.580Z,16.50
2023-03-25T19:33:26.743Z,16.50
2023-03-25T19:36:12.524Z,16.50
2023-03-25T19:38:39.572Z,16.50
2023-03-25T19:41:08.350Z,16.50
2023-03-25T19:43:35.926Z,16.50
2023-03-25T19:46:21.750Z,16.50
2023-03-25T19:48:48.586Z,16.50
2023-03-25T19:51:15.561Z,16.50
2023-03-25T19:53:42.308Z,16.40
2023-03-25T19:56:13.925Z,16.40
2023-03-25T19:58:41.312Z,16.40
2023-03-25T20:01:08.589Z,16.30
2023-03-25T20:06:22.386Z,16.10
2023-03-25T20:09:08.161Z,16.20
2023-03-25T20:11:53.418Z,16.20
2023-03-25T20:14:20.788Z,16.20
2023-03-25T20:16:47.540Z,16.30
2023-03-25T20:19:14.277Z,16.30
2023-03-25T20:21:41.094Z,16.30
2023-03-25T20:24:08.119Z,16.30
2023-03-25T20:26:34.934Z,16.30
2023-03-25T20:31:46.115Z,16.30
2023-03-25T20:34:13.008Z,16.30
2023-03-25T20:36:39.917Z,16.20
2023-03-25T20:39:06.699Z,16.20
2023-03-25T20:41:34.014Z,16.30
2023-03-25T20:44:00.860Z,16.20
2023-03-25T20:46:31.285Z,16.20
2023-03-25T20:48:58.878Z,16.10
2023-03-25T20:51:25.787Z,16.10
2023-03-25T20:53:53.196Z,16.10
2023-03-25T20:56:20.145Z,16.10
2023-03-25T20:58:47.297Z,16.00
2023-03-25T21:01:15.554Z,15.90
2023-03-25T21:03:43.025Z,15.90
2023-03-25T21:06:22.929Z,15.90
2023-03-25T21:08:51.219Z,16.00
2023-03-25T21:11:17.985Z,16.00
2023-03-25T21:13:44.829Z,16.00
2023-03-25T21:16:11.859Z,16.00
2023-03-25T21:18:38.663Z,16.10
2023-03-25T21:21:05.725Z,16.10
2023-03-25T21:23:32.631Z,16.10
2023-03-25T21:28:44.671Z,16.00
2023-03-25T21:31:17.531Z,16.00
2023-03-25T21:33:49.942Z,16.00
2023-03-25T21:36:18.753Z,16.00
2023-03-25T21:38:46.103Z,15.90
2023-03-25T21:43:57.282Z,15.90
2023-03-25T21:46:27.754Z,15.80
2023-03-25T21:48:55.368Z,15.80
2023-03-25T21:51:44.449Z,15.80
2023-03-25T21:54:11.601Z,15.70
2023-03-25T21:56:40.118Z,15.70
2023-03-25T21:59:25.641Z,15.60
2023-03-25T22:01:53.626Z,15.60
2023-03-25T22:04:20.472Z,15.60
2023-03-25T22:06:47.469Z,15.50
2023-03-25T22:09:14.253Z,15.60
2023-03-25T22:11:41.055Z,15.60
2023-03-25T22:14:09.762Z,15.60
2023-03-25T22:16:36.910Z,15.70
2023-03-25T22:19:05.866Z,15.70
2023-03-25T22:21:34.472Z,15.70
2023-03-25T22:24:02.495Z,15.70
2023-03-25T22:26:30.713Z,15.60
2023-03-25T22:28:58.939Z,15.70
2023-03-25T22:31:30.945Z,15.70
2023-03-25T22:34:11.087Z,15.60
2023-03-25T22:36:56.594Z,15.70
2023-03-25T22:39:25.488Z,15.70
2023-03-25T22:42:11.467Z,15.70
2023-03-25T22:44:38.395Z,15.70
2023-03-25T22:47:05.380Z,15.70
2023-03-25T22:49:32.222Z,15.70
2023-03-25T22:51:59.162Z,15.70
2023-03-25T22:54:26.010Z,15.70
2023-03-25T22:56:52.831Z,15.70
2023-03-25T22:59:19.941Z,15.70
2023-03-25T23:01:46.737Z,15.70
2023-03-25T23:04:32.158Z,15.70
2023-03-25T23:07:07.256Z,15.80
2023-03-25T23:09:41.480Z,15.80
2023-03-25T23:12:10.159Z,15.80
2023-03-25T23:17:23.104Z,15.80
2023-03-25T23:19:49.984Z,15.70
2023-03-25T23:22:35.368Z,15.60
2023-03-25T23:25:04.607Z,15.50
2023-03-25T23:27:33.850Z,15.40
2023-03-25T23:30:01.248Z,15.30
2023-03-25T23:32:28.038Z,15.30
2023-03-25T23:34:58.242Z,15.30
2023-03-25T23:37:28.518Z,15.30
2023-03-25T23:39:55.258Z,15.30
2023-03-25T23:42:22.387Z,15.20
2023-03-25T23:45:01.940Z,15.20
2023-03-25T23:47:28.687Z,15.20
2023-03-25T23:49:58.076Z,14.90
2023-03-25T23:52:24.921Z,14.80
2023-03-25T23:54:51.747Z,14.50
2023-03-25T23:57:18.641Z,14.50
2023-03-25T23:59:46.537Z,14.40
